createdAt,value
2019-05-15T00:02:21.390Z,1.00
2019-05-15T00:04:49.667Z,0.97
2019-05-15T00:07:18.397Z,0.80
2019-05-15T00:09:48.968Z,0.80
2019-05-15T00:12:18.842Z,0.90
2019-05-15T00:14:48.432Z,0.90
2019-05-15T00:17:18.981Z,0.87
2019-05-15T00:19:48.614Z,0.90
2019-05-15T00:22:18.362Z,1.17
2019-05-15T00:24:48.686Z,0.90
2019-05-15T00:27:16.891Z,1.10
2019-05-15T00:29:45.178Z,1.00
2019-05-15T00:32:13.417Z,1.00
2019-05-15T00:34:41.996Z,1.20
2019-05-15T00:37:10.298Z,0.90
2019-05-15T00:39:39.178Z,0.90
2019-05-15T00:42:08.360Z,1.00
2019-05-15T00:44:38.726Z,0.90
2019-05-15T00:47:10.246Z,0.90
2019-05-15T00:49:38.254Z,1.00
2019-05-15T00:52:11.757Z,1.20
2019-05-15T00:54:38.850Z,1.00
2019-05-15T00:57:08.589Z,0.90
2019-05-15T00:59:38.994Z,1.00
2019-05-15T01:02:08.699Z,1.03
2019-05-15T01:04:38.931Z,0.87
2019-05-15T01:07:08.355Z,1.00
2019-05-15T01:09:38.451Z,0.90
2019-05-15T01:12:09.026Z,0.90
2019-05-15T01:14:38.601Z,0.80
2019-05-15T01:17:09.044Z,0.80
2019-05-15T01:19:37.932Z,0.90
2019-05-15T01:22:08.587Z,1.10
2019-05-15T01:24:38.752Z,0.90
2019-05-15T01:27:06.406Z,0.90
2019-05-15T01:29:43.833Z,0.80
2019-05-15T01:32:04.642Z,0.97
2019-05-15T01:34:32.909Z,0.90
2019-05-15T01:37:01.161Z,0.90
2019-05-15T01:39:29.425Z,0.83
2019-05-15T01:41:58.501Z,1.00
2019-05-15T01:44:28.729Z,0.90
2019-05-15T01:46:58.866Z,1.07
2019-05-15T01:49:28.014Z,1.00
2019-05-15T01:51:58.493Z,0.90
2019-05-15T01:54:28.691Z,1.00
2019-05-15T01:56:58.764Z,0.93
2019-05-15T01:59:28.374Z,1.00
2019-05-15T02:01:58.885Z,1.00
2019-05-15T02:04:29.014Z,0.90
2019-05-15T02:06:58.901Z,0.90
2019-05-15T02:09:28.019Z,1.10
2019-05-15T02:11:58.142Z,1.10
2019-05-15T02:14:28.464Z,0.70
2019-05-15T02:16:59.142Z,1.10
2019-05-15T02:19:28.778Z,1.00
2019-05-15T02:21:57.990Z,1.10
2019-05-15T02:24:28.409Z,0.87
2019-05-15T02:26:58.662Z,0.80
2019-05-15T02:29:28.570Z,0.90
2019-05-15T02:31:59.205Z,0.90
2019-05-15T02:34:29.698Z,0.90
2019-05-15T02:36:59.826Z,0.97
2019-05-15T02:39:28.901Z,0.93
2019-05-15T02:41:59.259Z,1.00
2019-05-15T02:44:28.927Z,0.90
2019-05-15T02:49:20.265Z,1.00
2019-05-15T02:51:49.336Z,1.00
2019-05-15T02:54:19.643Z,0.70
2019-05-15T02:56:49.438Z,0.97
2019-05-15T02:59:19.409Z,1.00
2019-05-15T03:01:49.299Z,0.80
2019-05-15T03:04:19.989Z,0.93
2019-05-15T03:06:49.692Z,0.80
2019-05-15T03:09:18.794Z,0.90
2019-05-15T03:11:49.444Z,0.80
2019-05-15T03:14:21.143Z,0.97
2019-05-15T03:16:49.720Z,0.87
2019-05-15T03:19:19.344Z,0.90
2019-05-15T03:21:49.773Z,1.00
2019-05-15T03:24:19.430Z,1.00
2019-05-15T03:26:49.684Z,0.80
2019-05-15T03:29:20.893Z,0.80
2019-05-15T03:32:01.185Z,0.90
2019-05-15T03:34:23.079Z,0.93
2019-05-15T03:36:52.867Z,0.83
2019-05-15T03:39:18.992Z,0.90
2019-05-15T03:41:49.713Z,0.90
2019-05-15T03:44:19.734Z,0.80
2019-05-15T03:46:49.154Z,0.97
2019-05-15T03:49:20.004Z,0.90
2019-05-15T03:51:50.172Z,0.90
2019-05-15T03:54:18.995Z,1.00
2019-05-15T03:56:49.928Z,1.00
2019-05-15T03:59:19.288Z,0.90
2019-05-15T04:01:49.671Z,0.80
2019-05-15T04:04:18.890Z,0.90
2019-05-15T04:06:49.922Z,0.90
2019-05-15T04:09:18.934Z,1.00
2019-05-15T04:11:49.692Z,0.97
2019-05-15T04:14:19.377Z,1.07
2019-05-15T04:16:49.667Z,1.00
2019-05-15T04:19:19.117Z,1.10
2019-05-15T04:21:49.389Z,0.90
2019-05-15T04:24:18.979Z,0.90
2019-05-15T04:26:48.737Z,0.80
2019-05-15T04:29:19.396Z,1.17
2019-05-15T04:31:58.973Z,0.90
2019-05-15T04:34:19.487Z,1.00
2019-05-15T04:36:49.742Z,1.00
2019-05-15T04:39:19.407Z,0.90
2019-05-15T04:41:49.968Z,0.90
2019-05-15T04:44:19.338Z,1.00
2019-05-15T04:46:49.893Z,1.07
2019-05-15T04:49:19.265Z,0.80
2019-05-15T04:51:49.676Z,0.87
2019-05-15T04:54:20.051Z,0.90
2019-05-15T04:56:48.947Z,1.00
2019-05-15T04:59:19.515Z,1.00
2019-05-15T05:01:51.232Z,0.83
2019-05-15T05:04:18.858Z,0.90
2019-05-15T05:06:49.513Z,0.87
2019-05-15T05:09:19.849Z,0.80
2019-05-15T05:11:48.926Z,1.00
2019-05-15T05:14:18.864Z,0.93
2019-05-15T05:16:48.902Z,0.90
2019-05-15T05:19:19.547Z,0.90
2019-05-15T05:21:47.952Z,0.83
2019-05-15T05:24:18.421Z,1.00
2019-05-15T05:26:48.862Z,1.03
2019-05-15T05:29:17.817Z,1.00
2019-05-15T05:31:49.023Z,0.90
2019-05-15T05:34:19.202Z,0.97
2019-05-15T05:36:47.989Z,0.87
2019-05-15T05:39:19.188Z,1.00
2019-05-15T05:41:48.569Z,0.90
2019-05-15T05:44:18.904Z,1.10
2019-05-15T05:46:48.756Z,0.97
2019-05-15T05:49:18.548Z,1.10
2019-05-15T05:51:48.081Z,1.00
2019-05-15T05:54:18.237Z,0.90
2019-05-15T05:56:48.358Z,1.10
2019-05-15T05:59:18.605Z,1.00
2019-05-15T06:01:48.425Z,0.80
2019-05-15T06:04:18.572Z,0.83
2019-05-15T06:06:50.061Z,1.00
2019-05-15T06:09:18.251Z,0.90
2019-05-15T06:11:48.680Z,0.87
2019-05-15T06:14:18.341Z,1.00
2019-05-15T06:16:48.195Z,0.90
2019-05-15T06:19:18.281Z,0.90
2019-05-15T06:21:56.715Z,0.87
2019-05-15T06:24:18.045Z,0.80
2019-05-15T06:26:48.170Z,1.00
2019-05-15T06:29:17.944Z,1.00
2019-05-15T06:31:48.370Z,1.03
2019-05-15T06:34:17.890Z,0.80
2019-05-15T06:36:48.403Z,1.00
2019-05-15T06:39:17.870Z,1.03
2019-05-15T06:41:48.297Z,0.90
2019-05-15T06:44:18.583Z,0.83
2019-05-15T06:46:48.311Z,1.20
2019-05-15T06:49:17.972Z,0.90
2019-05-15T06:51:48.567Z,1.00
2019-05-15T06:54:18.752Z,0.90
2019-05-15T06:56:49.054Z,0.87
2019-05-15T06:59:17.996Z,1.00
2019-05-15T07:01:48.138Z,1.00
2019-05-15T07:04:18.197Z,0.97
2019-05-15T07:06:48.689Z,0.97
2019-05-15T07:09:17.992Z,0.90
2019-05-15T07:11:48.242Z,0.90
2019-05-15T07:14:18.149Z,1.07
2019-05-15T07:16:48.728Z,1.00
2019-05-15T07:19:18.830Z,0.90
2019-05-15T07:21:48.603Z,0.93
2019-05-15T07:24:18.233Z,1.30
2019-05-15T07:26:48.414Z,1.00
2019-05-15T07:29:18.644Z,1.00
2019-05-15T07:31:47.846Z,1.03
2019-05-15T07:34:18.638Z,0.90
2019-05-15T07:36:48.996Z,0.90
2019-05-15T07:39:17.960Z,1.10
2019-05-15T07:41:48.338Z,0.90
2019-05-15T07:44:18.640Z,1.00
2019-05-15T07:46:48.693Z,0.97
2019-05-15T07:49:18.139Z,1.00
2019-05-15T07:51:48.822Z,0.90
2019-05-15T07:54:18.222Z,1.00
2019-05-15T07:56:48.750Z,1.10
2019-05-15T07:59:18.730Z,1.10
2019-05-15T08:01:48.816Z,0.90
2019-05-15T08:04:26.147Z,1.00
2019-05-15T08:06:48.888Z,1.10
2019-05-15T08:09:18.010Z,1.07
2019-05-15T08:11:48.565Z,0.90
2019-05-15T08:14:18.528Z,1.07
2019-05-15T08:16:48.599Z,0.90
2019-05-15T08:19:18.403Z,0.90
2019-05-15T08:21:51.433Z,0.80
2019-05-15T08:27:58.747Z,1.03
2019-05-15T08:30:28.860Z,1.00
2019-05-15T08:32:58.834Z,1.07
2019-05-15T08:35:29.147Z,1.00
2019-05-15T08:37:58.136Z,0.90
2019-05-15T08:40:28.396Z,0.90
2019-05-15T08:43:01.897Z,0.90
2019-05-15T08:45:28.286Z,1.00
2019-05-15T08:47:58.564Z,0.90
2019-05-15T08:50:28.729Z,0.90
2019-05-15T08:52:57.948Z,0.90
2019-05-15T08:55:28.141Z,1.10
2019-05-15T08:58:05.679Z,1.00
2019-05-15T09:00:29.298Z,0.80
2019-05-15T09:02:58.222Z,0.90
2019-05-15T09:05:28.282Z,0.90
2019-05-15T09:07:58.051Z,0.90
2019-05-15T09:10:28.791Z,0.80
2019-05-15T09:12:58.684Z,1.00
2019-05-15T09:15:29.187Z,0.90
2019-05-15T09:18:09.182Z,0.90
2019-05-15T09:20:28.771Z,1.00
2019-05-15T09:22:58.273Z,0.90
2019-05-15T09:25:28.805Z,0.83
2019-05-15T09:27:57.971Z,1.00
2019-05-15T09:30:28.569Z,1.00
2019-05-15T09:32:58.724Z,0.93
2019-05-15T09:35:27.818Z,1.00
2019-05-15T09:37:58.252Z,1.13
2019-05-15T09:40:41.730Z,0.90
2019-05-15T09:42:57.809Z,1.10
2019-05-15T09:45:28.512Z,0.90
2019-05-15T09:47:58.654Z,1.03
2019-05-15T09:50:28.190Z,0.80
2019-05-15T09:52:58.650Z,1.00
2019-05-15T09:55:28.390Z,0.87
2019-05-15T09:57:58.873Z,0.90
2019-05-15T10:00:29.095Z,0.90
2019-05-15T10:02:57.025Z,0.93
2019-05-15T10:05:25.276Z,1.00
2019-05-15T10:07:53.559Z,1.00
2019-05-15T10:10:21.851Z,1.00
2019-05-15T10:12:50.270Z,1.00
2019-05-15T10:15:18.805Z,0.80
2019-05-15T10:17:50.701Z,1.00
2019-05-15T10:20:18.444Z,0.90
2019-05-15T10:22:48.429Z,0.97
2019-05-15T10:25:18.999Z,0.90
2019-05-15T10:27:48.798Z,1.17
2019-05-15T10:30:18.944Z,0.90
2019-05-15T10:32:48.663Z,1.10
2019-05-15T10:35:25.609Z,0.80
2019-05-15T10:37:48.811Z,0.97
2019-05-15T10:40:20.471Z,1.00
2019-05-15T10:42:49.468Z,0.93
2019-05-15T10:45:19.257Z,1.00
2019-05-15T10:47:49.633Z,0.93
2019-05-15T10:50:19.181Z,0.90
2019-05-15T10:52:48.943Z,0.93
2019-05-15T10:55:18.950Z,0.90
2019-05-15T10:57:47.499Z,0.90
2019-05-15T11:00:15.805Z,0.80
2019-05-15T11:02:44.061Z,0.80
2019-05-15T11:05:12.333Z,0.83
2019-05-15T11:07:40.692Z,0.93
2019-05-15T11:10:08.963Z,1.00
2019-05-15T11:12:37.676Z,0.90
2019-05-15T11:15:11.040Z,1.00
2019-05-15T11:17:38.526Z,0.97
2019-05-15T11:20:08.333Z,1.10
2019-05-15T11:22:42.252Z,1.00
2019-05-15T11:25:09.864Z,0.90
2019-05-15T11:27:39.063Z,1.10
2019-05-15T11:30:08.247Z,1.20
2019-05-15T11:32:38.835Z,1.10
2019-05-15T11:35:09.330Z,1.10
2019-05-15T11:37:44.877Z,1.03
2019-05-15T11:40:09.974Z,0.90
2019-05-15T11:42:39.544Z,0.90
2019-05-15T11:45:07.931Z,1.13
2019-05-15T11:47:39.002Z,1.10
2019-05-15T11:50:08.404Z,1.30
2019-05-15T11:52:40.105Z,1.10
2019-05-15T11:55:08.402Z,1.20
2019-05-15T11:57:46.120Z,1.20
2019-05-15T12:00:14.960Z,1.20
2019-05-15T12:02:38.553Z,1.40
2019-05-15T12:05:09.193Z,1.40
2019-05-15T12:07:38.279Z,1.53
2019-05-15T12:10:10.525Z,1.37
2019-05-15T12:12:38.562Z,1.50
2019-05-15T12:15:07.299Z,1.30
2019-05-15T12:17:38.810Z,1.30
2019-05-15T12:20:07.784Z,1.30
2019-05-15T12:22:38.941Z,1.40
2019-05-15T12:27:39.985Z,1.80
2019-05-15T12:30:10.867Z,1.40
2019-05-15T12:32:40.841Z,1.40
2019-05-15T12:35:09.768Z,1.50
2019-05-15T12:37:40.106Z,1.83
2019-05-15T13:00:11.346Z,1.50
2019-05-15T13:02:39.783Z,1.33
2019-05-15T13:05:08.632Z,2.13
2019-05-15T13:07:37.941Z,1.80
2019-05-15T13:10:08.689Z,1.77
2019-05-15T13:12:47.726Z,2.00
2019-05-15T13:15:08.362Z,2.10
2019-05-15T13:17:38.774Z,2.10
2019-05-15T13:20:08.707Z,2.30
2019-05-15T13:22:39.403Z,2.27
2019-05-15T13:25:08.763Z,2.00
2019-05-15T13:27:38.190Z,2.30
2019-05-15T13:30:09.192Z,2.17
2019-05-15T13:32:40.707Z,1.60
2019-05-15T13:35:09.881Z,2.13
2019-05-15T13:37:39.009Z,2.30
2019-05-15T13:40:07.964Z,2.30
2019-05-15T13:42:38.905Z,2.30
2019-05-15T13:45:12.973Z,4.10
2019-05-15T13:47:39.342Z,2.67
2019-05-15T13:50:09.154Z,3.33
2019-05-15T13:52:39.289Z,3.60
2019-05-15T13:55:08.783Z,5.00
2019-05-15T13:57:38.274Z,5.87
2019-05-15T14:00:08.981Z,8.40
2019-05-15T14:02:38.605Z,6.67
2019-05-15T14:05:09.515Z,5.30
2019-05-15T14:07:48.690Z,6.23
2019-05-15T14:10:09.467Z,6.60
2019-05-15T14:12:38.395Z,4.43
2019-05-15T14:15:08.997Z,4.43
2019-05-15T14:17:37.839Z,4.77
2019-05-15T14:20:08.721Z,5.63
2019-05-15T14:22:39.057Z,4.83
2019-05-15T14:25:08.860Z,4.93
2019-05-15T14:27:39.891Z,6.13
2019-05-15T14:30:09.261Z,4.33
2019-05-15T14:32:39.169Z,4.37
2019-05-15T14:35:09.254Z,5.10
2019-05-15T14:37:37.721Z,4.87
2019-05-15T14:40:08.663Z,5.23
2019-05-15T14:42:39.546Z,4.83
2019-05-15T14:45:08.809Z,6.23
2019-05-15T14:47:38.698Z,5.23
2019-05-15T14:50:09.866Z,5.37
2019-05-15T14:52:38.609Z,4.90
2019-05-15T14:55:07.345Z,4.23
2019-05-15T14:57:38.882Z,5.10
2019-05-15T15:00:08.577Z,4.53
2019-05-15T15:02:38.640Z,7.77
2019-05-15T15:05:08.580Z,4.70
2019-05-15T15:07:38.096Z,4.27
2019-05-15T15:10:07.835Z,4.77
2019-05-15T15:12:39.695Z,3.80
2019-05-15T15:15:10.137Z,5.93
2019-05-15T15:17:38.869Z,4.67
2019-05-15T15:20:07.991Z,5.27
2019-05-15T15:22:39.380Z,4.70
2019-05-15T15:25:09.572Z,5.43
2019-05-15T15:27:39.377Z,4.90
2019-05-15T15:30:09.174Z,4.50
2019-05-15T15:32:38.204Z,3.97
2019-05-15T15:35:08.500Z,4.50
2019-05-15T15:37:38.173Z,4.43
2019-05-15T15:40:08.290Z,4.83
2019-05-15T15:42:39.274Z,5.37
2019-05-15T15:45:09.042Z,5.70
2019-05-15T15:47:38.914Z,5.37
2019-05-15T15:50:09.467Z,5.40
2019-05-15T15:52:38.431Z,4.90
2019-05-15T15:55:08.870Z,4.07
2019-05-15T15:57:39.646Z,5.75
2019-05-15T16:00:10.578Z,6.33
2019-05-15T16:02:41.105Z,7.10
2019-05-15T16:05:08.906Z,6.53
2019-05-15T16:07:38.006Z,12.37
2019-05-15T16:10:08.384Z,5.33
2019-05-15T16:12:38.918Z,5.03
2019-05-15T16:15:08.847Z,8.00
2019-05-15T16:17:38.473Z,6.70
2019-05-15T16:20:08.247Z,5.20
2019-05-15T16:22:38.154Z,4.67
2019-05-15T16:25:09.595Z,7.13
2019-05-15T16:27:38.357Z,4.00
2019-05-15T16:30:08.202Z,3.67
2019-05-15T16:32:38.941Z,7.77
2019-05-15T16:35:09.090Z,3.03
2019-05-15T16:37:38.726Z,3.73
2019-05-15T16:40:08.098Z,4.90
2019-05-15T16:42:38.506Z,6.00
2019-05-15T16:45:09.455Z,5.13
2019-05-15T16:47:40.357Z,11.30
2019-05-15T16:50:08.641Z,11.53
2019-05-15T16:52:38.877Z,12.83
2019-05-15T16:55:09.320Z,5.20
2019-05-15T16:57:38.763Z,5.97
2019-05-15T17:00:09.499Z,4.53
2019-05-15T17:02:39.247Z,5.07
2019-05-15T17:05:08.069Z,6.37
2019-05-15T17:07:38.745Z,5.47
2019-05-15T17:10:08.424Z,17.70
2019-05-15T17:12:38.618Z,7.80
2019-05-15T17:15:08.630Z,4.40
2019-05-15T17:17:38.776Z,4.03
2019-05-15T17:20:09.803Z,4.97
2019-05-15T17:22:40.816Z,3.90
2019-05-15T17:25:09.673Z,20.47
2019-05-15T17:27:38.510Z,15.40
2019-05-15T17:30:09.379Z,5.20
2019-05-15T17:32:39.969Z,4.90
2019-05-15T17:35:09.980Z,4.57
2019-05-15T17:37:40.725Z,3.33
2019-05-15T17:40:10.277Z,1.93
2019-05-15T17:42:39.270Z,1.87
2019-05-15T17:45:09.197Z,3.00
2019-05-15T17:47:40.340Z,2.33
2019-05-15T17:50:10.596Z,2.03
2019-05-15T17:52:39.595Z,3.20
2019-05-15T17:55:09.937Z,2.70
2019-05-15T17:57:39.025Z,2.53
2019-05-15T18:00:12.215Z,2.40
2019-05-15T18:02:39.841Z,2.53
2019-05-15T18:05:08.986Z,2.43
2019-05-15T18:07:38.987Z,2.07
2019-05-15T18:10:11.210Z,2.67
2019-05-15T18:12:39.882Z,2.27
2019-05-15T18:15:09.140Z,2.27
2019-05-15T18:17:39.168Z,2.30
2019-05-15T18:20:09.949Z,1.60
2019-05-15T18:22:38.165Z,2.30
2019-05-15T18:25:09.171Z,1.80
2019-05-15T18:27:38.821Z,1.90
2019-05-15T18:30:09.247Z,1.73
2019-05-15T18:32:39.220Z,1.60
2019-05-15T18:35:08.315Z,2.00
2019-05-15T18:37:39.159Z,1.90
2019-05-15T18:40:09.782Z,1.57
2019-05-15T18:42:38.946Z,1.70
2019-05-15T18:45:08.226Z,1.37
2019-05-15T18:47:38.686Z,1.30
2019-05-15T18:50:12.590Z,1.50
2019-05-15T18:52:38.334Z,1.47
2019-05-15T18:55:08.015Z,2.03
2019-05-15T18:57:38.620Z,1.40
2019-05-15T19:00:08.831Z,1.27
2019-05-15T19:02:39.622Z,1.40
2019-05-15T19:05:08.132Z,1.53
2019-05-15T19:07:38.306Z,1.50
2019-05-15T19:10:08.101Z,1.30
2019-05-15T19:12:37.872Z,1.53
2019-05-15T19:15:09.555Z,1.40
2019-05-15T19:17:38.864Z,1.30
2019-05-15T19:20:08.462Z,1.10
2019-05-15T19:22:40.589Z,1.30
2019-05-15T19:25:08.794Z,1.50
2019-05-15T19:27:38.998Z,1.43
2019-05-15T19:30:08.508Z,1.43
2019-05-15T19:32:38.792Z,1.43
2019-05-15T19:35:08.026Z,1.47
2019-05-15T19:37:38.467Z,1.40
2019-05-15T19:40:08.119Z,1.37
2019-05-15T19:42:38.322Z,1.53
2019-05-15T19:45:08.580Z,1.50
2019-05-15T19:47:38.863Z,1.90
2019-05-15T19:50:08.473Z,1.67
2019-05-15T19:52:37.073Z,1.60
2019-05-15T19:55:05.536Z,1.53
2019-05-15T19:57:33.806Z,1.50
2019-05-15T20:00:02.086Z,1.60
2019-05-15T20:02:30.334Z,1.73
2019-05-15T20:04:58.592Z,1.57
2019-05-15T20:07:28.682Z,1.47
2019-05-15T20:09:58.426Z,1.80
2019-05-15T20:12:27.957Z,1.40
2019-05-15T20:14:58.343Z,1.60
2019-05-15T20:17:27.709Z,1.47
2019-05-15T20:19:58.167Z,1.60
2019-05-15T20:22:28.196Z,1.50
2019-05-15T20:24:58.340Z,2.10
2019-05-15T20:27:28.086Z,1.33
2019-05-15T20:29:56.101Z,1.67
2019-05-15T20:32:24.346Z,1.53
2019-05-15T20:34:52.635Z,1.50
2019-05-15T20:37:21.226Z,1.40
2019-05-15T20:39:49.509Z,1.63
2019-05-15T20:42:18.214Z,1.93
2019-05-15T20:44:48.556Z,2.03
2019-05-15T20:47:18.779Z,2.20
2019-05-15T20:49:48.549Z,1.80
2019-05-15T20:52:21.360Z,2.10
2019-05-15T20:54:48.058Z,2.40
2019-05-15T20:57:16.750Z,2.20
2019-05-15T20:59:45.333Z,2.53
2019-05-15T21:02:14.020Z,2.70
2019-05-15T21:04:42.289Z,2.80
2019-05-15T21:07:10.605Z,3.13
2019-05-15T21:09:39.418Z,3.33
2019-05-15T21:12:09.815Z,4.10
2019-05-15T21:14:40.094Z,4.67
2019-05-15T21:17:08.301Z,4.80
2019-05-15T21:19:38.576Z,4.70
2019-05-15T21:22:08.316Z,5.70
2019-05-15T21:24:37.819Z,5.93
2019-05-15T21:27:06.247Z,6.23
2019-05-15T21:29:34.951Z,7.20
2019-05-15T21:32:03.285Z,7.53
2019-05-15T21:34:37.315Z,7.83
2019-05-15T21:37:01.906Z,8.63
2019-05-15T21:39:30.365Z,9.40
2019-05-15T21:41:59.050Z,9.83
2019-05-15T21:44:29.363Z,10.73
2019-05-15T21:46:58.714Z,10.83
2019-05-15T21:49:28.145Z,12.47
2019-05-15T21:51:58.410Z,12.37
2019-05-15T21:54:28.159Z,13.00
2019-05-15T21:57:12.943Z,13.90
2019-05-15T21:59:27.908Z,14.40
2019-05-15T22:01:58.751Z,14.77
2019-05-15T22:04:28.168Z,16.02
2019-05-15T22:06:58.444Z,16.70
2019-05-15T22:09:28.919Z,18.20
2019-05-15T22:11:58.351Z,17.90
2019-05-15T22:14:26.872Z,18.75
2019-05-15T22:16:55.227Z,19.10
2019-05-15T22:19:23.745Z,19.80
2019-05-15T22:21:52.106Z,20.67
2019-05-15T22:24:20.394Z,22.00
2019-05-15T22:26:48.918Z,21.82
2019-05-15T22:29:17.744Z,23.73
2019-05-15T22:31:48.625Z,23.83
2019-05-15T22:34:18.433Z,24.87
2019-05-15T22:36:50.631Z,25.35
2019-05-15T22:39:18.887Z,25.97
2019-05-15T22:41:47.889Z,26.13
2019-05-15T22:44:18.993Z,27.25
2019-05-15T22:46:48.624Z,28.40
2019-05-15T22:49:18.318Z,28.38
2019-05-15T22:51:48.574Z,28.50
2019-05-15T22:54:16.961Z,29.80
2019-05-15T22:56:45.237Z,30.48
2019-05-15T22:59:13.514Z,28.97
2019-05-15T23:01:41.856Z,30.60
2019-05-15T23:04:10.228Z,31.07
2019-05-15T23:06:39.039Z,30.90
2019-05-15T23:09:07.661Z,30.60
2019-05-15T23:11:36.007Z,31.57
2019-05-15T23:14:04.260Z,32.13
2019-05-15T23:16:32.620Z,31.77
2019-05-15T23:19:01.265Z,32.38
2019-05-15T23:21:29.846Z,30.68
2019-05-15T23:23:58.103Z,31.33
2019-05-15T23:26:28.135Z,30.85
2019-05-15T23:28:58.446Z,30.90
2019-05-15T23:31:28.083Z,31.75
2019-05-15T23:33:56.536Z,30.30
2019-05-15T23:36:24.817Z,31.10
2019-05-15T23:38:53.087Z,30.10
2019-05-15T23:41:21.428Z,30.40
2019-05-15T23:43:49.679Z,27.70
2019-05-15T23:46:18.460Z,27.87
2019-05-15T23:48:48.465Z,28.30
2019-05-15T23:51:18.922Z,27.15
2019-05-15T23:53:48.345Z,26.55
2019-05-15T23:56:19.041Z,26.65
2019-05-15T23:58:47.189Z,24.75
